Nina — ICMG — position and weather

sailwx.info

Track history (hours):
 
Tides and Currents Weather Stations Pressure Air Temp Water Temp Dewpoint Dewpoint Depression Visibility Wind Speed Wind Dir Waves Ship Positions

Nina

Last reported at 2014-Aug-28 04:33 UTC. Time now 2014-Aug-28 05:26 UTC.
Position N 52°25' E 004°46'.

Length 180 m; draft 7.2 m.

Type: Tanker. MMSI: 247239700.

Date/timePositionNaut miles runAvg speedWind from/ knotsBaromVisibWave heightAir tempDewpointWater temp
2014-Aug-28 04:33N 52°25' E 004°46'0 0.0
2014-Aug-28 03:33N 52°25' E 004°46'0 0.0
2014-Aug-28 02:33N 52°25' E 004°46'0 0.0
2014-Aug-28 01:33N 52°25' E 004°46'0 0.0
2014-Aug-28 00:33N 52°25' E 004°46'0 0.0
2014-Aug-27 23:33N 52°25' E 004°46'0 0.0
2014-Aug-27 22:33N 52°25' E 004°46'0 0.0
2014-Aug-27 21:33N 52°25' E 004°46'0 0.0
2014-Aug-27 20:33N 52°25' E 004°46'0 0.0
2014-Aug-27 19:33N 52°25' E 004°46'0 0.0
2014-Aug-27 18:33N 52°25' E 004°46'0 0.0
2014-Aug-27 17:33N 52°25' E 004°46'0 0.0
2014-Aug-27 16:33N 52°25' E 004°46'0 0.0
2014-Aug-27 15:30N 52°25' E 004°46'0 0.0
2014-Aug-27 14:33N 52°25' E 004°46'0 0.0
2014-Aug-27 13:33N 52°25' E 004°46'0 0.0
2014-Aug-27 12:33N 52°25' E 004°46'0 0.0
2014-Aug-27 11:33N 52°25' E 004°46'0 0.0
2014-Aug-27 10:33N 52°25' E 004°46'0 0.0
2014-Aug-27 09:30N 52°25' E 004°46'0 0.0
2014-Aug-27 08:27N 52°25' E 004°46'0 0.0
2014-Aug-27 07:27N 52°25' E 004°46'0 0.0
2014-Aug-27 05:33N 52°25' E 004°46'0 0.0
2014-Aug-27 04:33N 52°25' E 004°46'0 0.0
2014-Aug-27 03:33N 52°25' E 004°46'0 0.0
2014-Aug-27 02:27N 52°25' E 004°46'0 0.0
2014-Aug-27 01:33N 52°25' E 004°46'0 0.0
2014-Aug-27 00:33N 52°25' E 004°46'0 0.0
2014-Aug-26 23:33N 52°25' E 004°46'0 0.0
2014-Aug-26 22:33N 52°25' E 004°46'0 0.0
2014-Aug-26 21:32N 52°25' E 004°46'0 0.0
2014-Aug-26 20:33N 52°25' E 004°46'0 0.0
2014-Aug-26 19:32N 52°25' E 004°46'0 0.0
2014-Aug-26 18:33N 52°25' E 004°46'0 0.0
2014-Aug-26 17:26N 52°25' E 004°46'0 0.0
2014-Aug-26 16:33N 52°25' E 004°46'0 0.0
2014-Aug-26 15:32N 52°25' E 004°46'0 0.0
2014-Aug-26 14:33N 52°25' E 004°46'0 0.0
2014-Aug-26 13:30N 52°25' E 004°46'0 0.0
2014-Aug-26 12:31N 52°25' E 004°46'0 0.0
2014-Aug-26 11:31N 52°25' E 004°46'0 0.0
2014-Aug-26 10:31N 52°25' E 004°46'0 0.0
2014-Aug-26 09:32N 52°25' E 004°46'0 0.0
2014-Aug-26 08:32N 52°25' E 004°46'0 0.0
2014-Aug-26 07:32N 52°25' E 004°46'0 0.0
2014-Aug-26 06:29N 52°25' E 004°46'0 0.0
2014-Aug-26 05:32N 52°25' E 004°46'0 0.0
2014-Aug-26 04:32N 52°25' E 004°46'0 0.0
2014-Aug-26 03:32N 52°25' E 004°46'0 0.0
2014-Aug-26 02:33N 52°25' E 004°46'0 0.0
2014-Aug-26 01:33N 52°25' E 004°46'0 0.0
2014-Aug-26 00:33N 52°25' E 004°46'5 5.3
2014-Aug-25 23:33N 52°28' E 004°39'4 3.5
2014-Aug-25 22:34N 52°28' E 004°33'8 8.0
2014-Aug-25 21:34N 52°28' E 004°20'6 6.3
2014-Aug-25 20:33N 52°29' E 004°10'4 3.9
2014-Aug-25 19:33N 52°27' E 004°04'0 0.0
2014-Aug-25 18:34N 52°27' E 004°04'0 0.1
2014-Aug-25 17:33N 52°27' E 004°04'0 0.1
2014-Aug-25 16:34N 52°27' E 004°04'0 0.1
2014-Aug-25 15:34N 52°27' E 004°04'0 0.0
2014-Aug-25 14:33N 52°27' E 004°04'0 0.0
2014-Aug-25 13:34N 52°27' E 004°04'0 0.2
2014-Aug-25 12:33N 52°27' E 004°04'0 0.0
2014-Aug-25 11:33N 52°27' E 004°04'0 0.0
2014-Aug-25 10:34N 52°27' E 004°04'0 0.0
2014-Aug-25 09:33N 52°27' E 004°04'0 0.0
2014-Aug-25 08:33N 52°27' E 004°04'0 0.0
2014-Aug-25 07:33N 52°27' E 004°04'0 0.2
2014-Aug-25 06:30N 52°27' E 004°04'0 0.0
2014-Aug-25 05:33N 52°27' E 004°04'0 0.0
2014-Aug-25 03:30N 52°27' E 004°04'0 0.0
2014-Aug-25 02:30N 52°27' E 004°04'0 0.1
2014-Aug-25 00:30N 52°27' E 004°04'0 0.1
2014-Aug-24 23:33N 52°27' E 004°04'0 0.0
2014-Aug-24 22:33N 52°27' E 004°04'0 0.0
2014-Aug-24 21:33N 52°27' E 004°04'0 0.0
2014-Aug-24 20:33N 52°27' E 004°04'0 0.0
2014-Aug-24 19:33N 52°27' E 004°04'0 0.1
2014-Aug-24 18:33N 52°27' E 004°04'0 0.1
2014-Aug-24 17:33N 52°27' E 004°04'0 0.1
2014-Aug-24 16:33N 52°27' E 004°04'0 0.0
2014-Aug-24 15:33N 52°27' E 004°04'0 0.0
2014-Aug-24 14:33N 52°27' E 004°04'0 0.0
2014-Aug-24 13:33N 52°27' E 004°04'0 0.1
2014-Aug-24 12:33N 52°27' E 004°04'0 0.1
2014-Aug-24 11:33N 52°27' E 004°04'0 0.0
2014-Aug-24 10:33N 52°27' E 004°04'0 0.0
2014-Aug-24 09:33N 52°27' E 004°04'0 0.0
2014-Aug-24 08:33N 52°27' E 004°04'0 0.0
2014-Aug-24 07:33N 52°27' E 004°04'0 0.1
2014-Aug-24 06:33N 52°27' E 004°04'6 5.5
2014-Aug-24 05:33N 52°27' E 003°55'  
2014-Aug-20 19:21N 56°39' E 004°23'277 5.6
2014-Aug-18 17:33N 52°03' E 003°54'8 8.3
2014-Aug-18 16:33N 51°59' E 004°06'  
Track history (hours):
 
Tides and Currents Weather Stations Pressure Air Temp Water Temp Dewpoint Dewpoint Depression Visibility Wind Speed Wind Dir Waves Ship Positions

Nina

Last reported at 2014-Aug-28 04:33 UTC. Time now 2014-Aug-28 05:26 UTC.
Position N 52°25' E 004°46'.

Length 180 m; draft 7.2 m.

Type: Tanker. MMSI: 247239700.

Date/timePositionNaut miles runAvg speedWind from/ knotsBaromVisibWave heightAir tempDewpointWater temp
2014-Aug-28 04:33N 52°25' E 004°46'0 0.0
2014-Aug-28 03:33N 52°25' E 004°46'0 0.0
2014-Aug-28 02:33N 52°25' E 004°46'0 0.0
2014-Aug-28 01:33N 52°25' E 004°46'0 0.0
2014-Aug-28 00:33N 52°25' E 004°46'0 0.0
2014-Aug-27 23:33N 52°25' E 004°46'0 0.0
2014-Aug-27 22:33N 52°25' E 004°46'0 0.0
2014-Aug-27 21:33N 52°25' E 004°46'0 0.0
2014-Aug-27 20:33N 52°25' E 004°46'0 0.0
2014-Aug-27 19:33N 52°25' E 004°46'0 0.0
2014-Aug-27 18:33N 52°25' E 004°46'0 0.0
2014-Aug-27 17:33N 52°25' E 004°46'0 0.0
2014-Aug-27 16:33N 52°25' E 004°46'0 0.0
2014-Aug-27 15:30N 52°25' E 004°46'0 0.0
2014-Aug-27 14:33N 52°25' E 004°46'0 0.0
2014-Aug-27 13:33N 52°25' E 004°46'0 0.0
2014-Aug-27 12:33N 52°25' E 004°46'0 0.0
2014-Aug-27 11:33N 52°25' E 004°46'0 0.0
2014-Aug-27 10:33N 52°25' E 004°46'0 0.0
2014-Aug-27 09:30N 52°25' E 004°46'0 0.0
2014-Aug-27 08:27N 52°25' E 004°46'0 0.0
2014-Aug-27 07:27N 52°25' E 004°46'0 0.0
2014-Aug-27 05:33N 52°25' E 004°46'0 0.0
2014-Aug-27 04:33N 52°25' E 004°46'0 0.0
2014-Aug-27 03:33N 52°25' E 004°46'0 0.0
2014-Aug-27 02:27N 52°25' E 004°46'0 0.0
2014-Aug-27 01:33N 52°25' E 004°46'0 0.0
2014-Aug-27 00:33N 52°25' E 004°46'0 0.0
2014-Aug-26 23:33N 52°25' E 004°46'0 0.0
2014-Aug-26 22:33N 52°25' E 004°46'0 0.0
2014-Aug-26 21:32N 52°25' E 004°46'0 0.0
2014-Aug-26 20:33N 52°25' E 004°46'0 0.0
2014-Aug-26 19:32N 52°25' E 004°46'0 0.0
2014-Aug-26 18:33N 52°25' E 004°46'0 0.0
2014-Aug-26 17:26N 52°25' E 004°46'0 0.0
2014-Aug-26 16:33N 52°25' E 004°46'0 0.0
2014-Aug-26 15:32N 52°25' E 004°46'0 0.0
2014-Aug-26 14:33N 52°25' E 004°46'0 0.0
2014-Aug-26 13:30N 52°25' E 004°46'0 0.0
2014-Aug-26 12:31N 52°25' E 004°46'0 0.0
2014-Aug-26 11:31N 52°25' E 004°46'0 0.0
2014-Aug-26 10:31N 52°25' E 004°46'0 0.0
2014-Aug-26 09:32N 52°25' E 004°46'0 0.0
2014-Aug-26 08:32N 52°25' E 004°46'0 0.0
2014-Aug-26 07:32N 52°25' E 004°46'0 0.0
2014-Aug-26 06:29N 52°25' E 004°46'0 0.0
2014-Aug-26 05:32N 52°25' E 004°46'0 0.0
2014-Aug-26 04:32N 52°25' E 004°46'0 0.0
2014-Aug-26 03:32N 52°25' E 004°46'0 0.0
2014-Aug-26 02:33N 52°25' E 004°46'0 0.0
2014-Aug-26 01:33N 52°25' E 004°46'0 0.0
2014-Aug-26 00:33N 52°25' E 004°46'5 5.3
2014-Aug-25 23:33N 52°28' E 004°39'4 3.5
2014-Aug-25 22:34N 52°28' E 004°33'8 8.0
2014-Aug-25 21:34N 52°28' E 004°20'6 6.3
2014-Aug-25 20:33N 52°29' E 004°10'4 3.9
2014-Aug-25 19:33N 52°27' E 004°04'0 0.0
2014-Aug-25 18:34N 52°27' E 004°04'0 0.1
2014-Aug-25 17:33N 52°27' E 004°04'0 0.1
2014-Aug-25 16:34N 52°27' E 004°04'0 0.1
2014-Aug-25 15:34N 52°27' E 004°04'0 0.0
2014-Aug-25 14:33N 52°27' E 004°04'0 0.0
2014-Aug-25 13:34N 52°27' E 004°04'0 0.2
2014-Aug-25 12:33N 52°27' E 004°04'0 0.0
2014-Aug-25 11:33N 52°27' E 004°04'0 0.0
2014-Aug-25 10:34N 52°27' E 004°04'0 0.0
2014-Aug-25 09:33N 52°27' E 004°04'0 0.0
2014-Aug-25 08:33N 52°27' E 004°04'0 0.0
2014-Aug-25 07:33N 52°27' E 004°04'0 0.2
2014-Aug-25 06:30N 52°27' E 004°04'0 0.0
2014-Aug-25 05:33N 52°27' E 004°04'0 0.0
2014-Aug-25 03:30N 52°27' E 004°04'0 0.0
2014-Aug-25 02:30N 52°27' E 004°04'0 0.1
2014-Aug-25 00:30N 52°27' E 004°04'0 0.1
2014-Aug-24 23:33N 52°27' E 004°04'0 0.0
2014-Aug-24 22:33N 52°27' E 004°04'0 0.0
2014-Aug-24 21:33N 52°27' E 004°04'0 0.0
2014-Aug-24 20:33N 52°27' E 004°04'0 0.0
2014-Aug-24 19:33N 52°27' E 004°04'0 0.1
2014-Aug-24 18:33N 52°27' E 004°04'0 0.1
2014-Aug-24 17:33N 52°27' E 004°04'0 0.1
2014-Aug-24 16:33N 52°27' E 004°04'0 0.0
2014-Aug-24 15:33N 52°27' E 004°04'0 0.0
2014-Aug-24 14:33N 52°27' E 004°04'0 0.0
2014-Aug-24 13:33N 52°27' E 004°04'0 0.1
2014-Aug-24 12:33N 52°27' E 004°04'0 0.1
2014-Aug-24 11:33N 52°27' E 004°04'0 0.0
2014-Aug-24 10:33N 52°27' E 004°04'0 0.0
2014-Aug-24 09:33N 52°27' E 004°04'0 0.0
2014-Aug-24 08:33N 52°27' E 004°04'0 0.0
2014-Aug-24 07:33N 52°27' E 004°04'0 0.1
2014-Aug-24 06:33N 52°27' E 004°04'6 5.5
2014-Aug-24 05:33N 52°27' E 003°55'  
2014-Aug-20 19:21N 56°39' E 004°23'277 5.6
2014-Aug-18 17:33N 52°03' E 003°54'8 8.3
2014-Aug-18 16:33N 51°59' E 004°06'  

Dump ship's entire track history